Flight Track Log - Related Links

Times and Time Zones

All times are in EDT time to prevent confusion due to time zone crossing. See the ASH1021 flight status page for this flight to view local times or setup timezone preferences in your user account.

Time Position Orientation Groundspeed Altitude Reporting Facility
EDT Latitude Longitude Course Direction KTS MPH feet Rate Location/Type
Wed 01:03:03 PM 21.3167 -157.9000 148° Southeast 170 196 1,000  Level Honolulu Center
Wed 01:04:03 PM 21.2667 -157.8667 148° Southeast 200 230 3,500 2,350 Climbing Honolulu Center
Wed 01:05:03 PM 21.2333 -157.8167 126° Southeast 240 276 5,700 2,300 Climbing Honolulu Center
Wed 01:06:03 PM 21.2000 -157.7500 118° Southeast 270 311 8,100 2,350 Climbing Honolulu Center
Wed 01:07:03 PM 21.1500 -157.6833 129° Southeast 280 322 10,400 1,700 Climbing Honolulu Center
Wed 01:08:03 PM 21.1167 -157.6000 113° Southeast 320 368 11,500 1,300 Climbing Honolulu Center
Wed 01:09:03 PM 21.0667 -157.5167 123° Southeast 340 391 13,000 744 Climbing Honolulu Center
Wed 01:10:04 PM 21.0333 -157.4167 110° East 350 403 13,000  Level Honolulu Center
Wed 01:11:04 PM 20.9833 -157.3167 118° Southeast 340 391 13,000  Level Honolulu Center
Wed 01:12:04 PM 20.9500 -157.2333 113° Southeast 340 391 13,000  Level Honolulu Center
Wed 01:13:04 PM 20.9000 -157.1333 118° Southeast 340 391 13,000 -50 Level Honolulu Center
Wed 01:14:04 PM 20.8667 -157.0500 113° Southeast 320 368 12,900 -800 Descending Honolulu Center
Wed 01:15:04 PM 20.8333 -156.9667 113° Southeast 290 334 11,400 -1,736 Descending Honolulu Center
Wed 01:16:05 PM 20.8000 -156.9000 118° Southeast 280 322 9,400 -2,033 Descending Honolulu Center
Wed 01:17:05 PM 20.7667 -156.8167 113° Southeast 280 322 7,300 -2,000 Descending Honolulu Center
Wed 01:18:05 PM 20.7333 -156.7500 118° Southeast 270 311 5,400 -1,850 Descending Honolulu Center
Wed 01:19:05 PM 20.7167 -156.6833 105° East 240 276 3,600 -1,200 Descending Honolulu Center
Wed 01:20:05 PM 20.7333 -156.6000 78° East 240 276 3,000 -450 Descending Honolulu Center
Wed 01:21:05 PM 20.7333 -156.5333 90° East 220 253 2,700 -750 Descending Honolulu Center
Wed 01:22:05 PM 20.8000 -156.5000 25° Northeast 220 253 1,500 -750 Descending Honolulu Center
Wed 01:23:05 PM 20.8333 -156.4667 43° Northeast 140 161 1,200 -400 Descending Honolulu Center
Wed 01:24:05 PM 20.8500 -156.4500 43° Northeast 120 138 700 -500 Descending Honolulu Center

Login

Don't have an account? Register now (free) for customized features, flight alerts, and more!